createdAt,value
2019-03-22T00:00:02.470Z,99.90
2019-03-22T00:02:33.213Z,99.90
2019-03-22T00:05:02.249Z,99.90
2019-03-22T00:07:31.228Z,99.90
2019-03-22T00:10:00.974Z,99.90
2019-03-22T00:12:30.136Z,99.90
2019-03-22T00:14:59.634Z,99.90
2019-03-22T00:17:28.854Z,99.90
2019-03-22T00:19:58.145Z,99.90
2019-03-22T00:22:27.848Z,99.90
2019-03-22T00:24:57.576Z,99.90
2019-03-22T00:27:30.129Z,99.90
2019-03-22T00:29:59.456Z,99.90
2019-03-22T00:32:28.929Z,99.90
2019-03-22T00:34:58.435Z,99.90
2019-03-22T00:37:27.966Z,99.90
2019-03-22T00:39:56.826Z,99.90
2019-03-22T00:42:25.562Z,99.90
2019-03-22T00:44:54.645Z,99.90
2019-03-22T00:47:23.513Z,99.90
2019-03-22T00:49:52.663Z,99.90
2019-03-22T00:52:22.334Z,99.90
2019-03-22T00:54:51.622Z,99.90
2019-03-22T00:57:28.443Z,99.90
2019-03-22T00:59:52.299Z,99.90
2019-03-22T01:02:21.101Z,99.90
2019-03-22T01:04:50.267Z,99.90
2019-03-22T01:07:19.985Z,99.90
2019-03-22T01:09:49.262Z,99.90
2019-03-22T01:12:18.242Z,99.90
2019-03-22T01:14:47.459Z,99.90
2019-03-22T01:17:16.950Z,99.90
2019-03-22T01:19:46.146Z,99.90
2019-03-22T01:22:15.108Z,99.90
2019-03-22T01:24:44.911Z,99.90
2019-03-22T01:27:14.357Z,99.90
2019-03-22T01:29:44.078Z,99.90
2019-03-22T01:32:13.368Z,99.90
2019-03-22T01:34:42.251Z,99.90
2019-03-22T01:37:11.227Z,99.90
2019-03-22T01:39:40.230Z,99.90
2019-03-22T01:42:09.540Z,99.90
2019-03-22T01:44:38.918Z,99.90
2019-03-22T01:47:08.248Z,99.90
2019-03-22T01:49:37.505Z,99.90
2019-03-22T01:52:06.419Z,99.90
2019-03-22T01:54:36.039Z,99.90
2019-03-22T01:57:04.938Z,99.90
2019-03-22T01:59:33.911Z,99.90
2019-03-22T02:02:02.929Z,99.90
2019-03-22T02:04:31.893Z,99.90
2019-03-22T02:07:00.966Z,99.90
2019-03-22T02:09:30.208Z,99.90
2019-03-22T02:11:59.449Z,99.90
2019-03-22T02:14:28.615Z,99.90
2019-03-22T02:16:57.897Z,99.90
2019-03-22T02:19:27.406Z,99.90
2019-03-22T02:21:56.310Z,99.90
2019-03-22T02:24:25.271Z,99.90
2019-03-22T02:26:54.897Z,99.90
2019-03-22T02:29:23.798Z,99.90
2019-03-22T02:31:53.904Z,99.90
2019-03-22T02:34:23.130Z,99.90
2019-03-22T02:36:52.110Z,99.90
2019-03-22T02:39:21.501Z,99.90
2019-03-22T02:41:50.944Z,99.90
2019-03-22T02:44:19.850Z,99.90
2019-03-22T02:46:49.089Z,99.90
2019-03-22T02:49:18.606Z,99.90
2019-03-22T02:51:47.899Z,99.90
2019-03-22T02:54:16.786Z,99.90
2019-03-22T02:56:45.749Z,99.90
2019-03-22T02:59:15.383Z,99.90
2019-03-22T03:01:44.278Z,99.90
2019-03-22T03:04:13.226Z,99.90
2019-03-22T03:06:42.875Z,99.90
2019-03-22T03:09:12.579Z,99.90
2019-03-22T03:11:41.566Z,99.90
2019-03-22T03:14:10.778Z,99.90
2019-03-22T03:16:40.070Z,99.90
2019-03-22T03:19:09.800Z,99.90
2019-03-22T03:21:38.746Z,99.90
2019-03-22T03:24:07.963Z,99.90
2019-03-22T03:26:36.861Z,99.90
2019-03-22T03:29:11.795Z,99.90
2019-03-22T03:31:40.811Z,99.90
2019-03-22T03:34:09.742Z,99.90
2019-03-22T03:36:38.779Z,99.90
2019-03-22T03:39:08.442Z,99.90
2019-03-22T03:41:37.610Z,99.90
2019-03-22T03:44:09.423Z,99.90
2019-03-22T03:46:38.431Z,99.90
2019-03-22T03:49:07.941Z,99.90
2019-03-22T03:51:37.262Z,99.90
2019-03-22T03:54:06.939Z,99.90
2019-03-22T03:56:36.454Z,99.90
2019-03-22T03:59:06.193Z,99.90
2019-03-22T04:01:35.462Z,99.90
2019-03-22T04:04:04.551Z,99.90
2019-03-22T04:06:34.088Z,99.90
2019-03-22T04:09:04.520Z,99.90
2019-03-22T04:11:33.343Z,99.90
2019-03-22T04:14:03.121Z,99.90
2019-03-22T04:16:32.698Z,99.90
2019-03-22T04:19:01.577Z,99.90
2019-03-22T04:21:30.566Z,99.90
2019-03-22T04:24:00.193Z,99.90
2019-03-22T04:26:29.033Z,99.90
2019-03-22T04:29:07.280Z,99.90
2019-03-22T04:31:30.201Z,99.90
2019-03-22T04:33:59.244Z,99.90
2019-03-22T04:36:28.190Z,99.90
2019-03-22T04:38:57.626Z,99.90
2019-03-22T04:41:27.654Z,99.90
2019-03-22T04:43:56.833Z,99.90
2019-03-22T04:46:27.277Z,99.90
2019-03-22T04:48:57.462Z,99.90
2019-03-22T04:51:27.213Z,99.90
2019-03-22T04:53:59.422Z,99.90
2019-03-22T04:56:31.032Z,99.90
2019-03-22T04:59:02.129Z,99.90
2019-03-22T05:01:35.562Z,99.90
2019-03-22T05:04:07.222Z,99.90
2019-03-22T05:06:37.761Z,99.90
2019-03-22T05:09:11.552Z,99.90
2019-03-22T05:11:42.205Z,99.90
2019-03-22T05:14:13.715Z,99.90
2019-03-22T05:16:45.406Z,99.90
2019-03-22T05:19:15.779Z,99.90
2019-03-22T05:21:46.069Z,99.90
2019-03-22T05:24:18.182Z,99.90
2019-03-22T05:26:49.569Z,99.90
2019-03-22T05:29:30.222Z,99.90
2019-03-22T05:32:13.456Z,99.90
2019-03-22T05:34:42.634Z,99.90
2019-03-22T05:37:11.842Z,99.90
2019-03-22T05:39:40.693Z,99.90
2019-03-22T05:42:09.912Z,99.90
2019-03-22T05:44:38.855Z,99.90
2019-03-22T05:47:08.337Z,99.90
2019-03-22T05:49:38.052Z,99.90
2019-03-22T05:52:07.326Z,99.90
2019-03-22T05:54:36.235Z,99.90
2019-03-22T05:57:13.112Z,99.90
2019-03-22T05:59:42.355Z,99.90
2019-03-22T06:02:07.804Z,99.90
2019-03-22T06:04:36.766Z,99.90
2019-03-22T06:07:05.731Z,99.90
2019-03-22T06:09:34.906Z,99.90
2019-03-22T06:12:03.794Z,99.90
2019-03-22T06:14:32.689Z,99.90
2019-03-22T06:17:02.371Z,99.90
2019-03-22T06:19:32.098Z,99.90
2019-03-22T06:22:01.987Z,99.90
2019-03-22T06:24:31.118Z,99.90
2019-03-22T06:27:00.773Z,99.90
2019-03-22T06:29:30.328Z,99.90
2019-03-22T06:31:59.242Z,99.90
2019-03-22T06:34:28.372Z,99.90
2019-03-22T06:36:57.569Z,99.90
2019-03-22T06:39:26.970Z,99.90
2019-03-22T06:41:56.409Z,99.90
2019-03-22T06:44:32.746Z,99.90
2019-03-22T06:47:02.381Z,99.90
2019-03-22T06:49:37.607Z,99.90
2019-03-22T06:52:07.344Z,99.90
2019-03-22T06:54:36.206Z,99.90
2019-03-22T06:57:06.118Z,99.90
2019-03-22T06:59:35.105Z,99.90
2019-03-22T07:02:11.928Z,99.90
2019-03-22T07:04:51.197Z,99.90
2019-03-22T07:07:33.056Z,99.90
2019-03-22T07:10:13.230Z,99.90
2019-03-22T07:12:49.415Z,99.90
2019-03-22T07:15:38.112Z,99.90
2019-03-22T07:18:19.480Z,99.90
2019-03-22T07:20:56.726Z,99.90
2019-03-22T07:23:33.448Z,99.90
2019-03-22T07:26:08.586Z,99.90
2019-03-22T07:28:48.776Z,99.90
2019-03-22T07:31:30.002Z,99.90
2019-03-22T07:34:21.074Z,99.90
2019-03-22T07:36:56.869Z,99.90
2019-03-22T07:39:30.168Z,99.90
2019-03-22T07:42:10.628Z,99.90
2019-03-22T07:44:54.190Z,99.90
2019-03-22T07:47:31.418Z,99.90
2019-03-22T07:50:11.994Z,99.90
2019-03-22T07:52:47.632Z,99.90
2019-03-22T07:55:49.565Z,99.90
2019-03-22T07:58:29.327Z,99.90
2019-03-22T08:01:37.875Z,99.90
2019-03-22T08:04:12.978Z,99.90
2019-03-22T08:06:51.267Z,99.90
2019-03-22T08:09:30.334Z,99.90
2019-03-22T08:12:07.673Z,99.90
2019-03-22T08:14:44.568Z,99.90
2019-03-22T08:17:22.822Z,99.90
2019-03-22T08:19:57.392Z,99.90
2019-03-22T08:22:44.501Z,99.90
2019-03-22T08:25:19.956Z,99.90
2019-03-22T08:27:54.872Z,99.90
2019-03-22T08:30:42.199Z,99.90
2019-03-22T08:33:08.534Z,99.90
2019-03-22T08:35:44.637Z,99.90
2019-03-22T08:38:28.133Z,99.90
2019-03-22T08:41:06.192Z,99.90
2019-03-22T08:44:09.404Z,99.90
2019-03-22T08:46:46.779Z,99.90
2019-03-22T08:49:26.105Z,99.90
2019-03-22T08:52:00.930Z,99.90
2019-03-22T08:54:54.565Z,99.90
2019-03-22T08:57:29.462Z,99.90
2019-03-22T09:00:17.574Z,99.90
2019-03-22T09:02:57.271Z,99.90
2019-03-22T09:05:41.701Z,99.90
2019-03-22T09:08:19.178Z,99.90
2019-03-22T09:11:05.541Z,99.90
2019-03-22T09:13:40.199Z,99.90
2019-03-22T09:16:23.701Z,99.90
2019-03-22T09:18:58.232Z,99.90
2019-03-22T09:21:48.466Z,99.90
2019-03-22T09:24:38.324Z,99.90
2019-03-22T09:27:09.933Z,99.90
2019-03-22T09:29:47.287Z,99.90
2019-03-22T09:32:31.257Z,99.90
2019-03-22T09:35:22.805Z,99.90
2019-03-22T09:38:12.319Z,99.90
2019-03-22T09:40:53.951Z,99.90
2019-03-22T09:43:30.564Z,99.90
2019-03-22T09:46:14.178Z,99.90
2019-03-22T09:48:57.051Z,97.70
2019-03-22T09:51:39.757Z,95.90
2019-03-22T09:54:14.239Z,96.60
2019-03-22T09:57:04.753Z,95.00
2019-03-22T09:59:41.425Z,95.80
2019-03-22T10:02:33.529Z,95.20
2019-03-22T10:05:16.038Z,94.90
2019-03-22T10:07:50.017Z,91.80
2019-03-22T10:10:37.339Z,92.40
2019-03-22T10:13:12.941Z,92.20
2019-03-22T10:15:53.245Z,90.40
2019-03-22T10:18:29.804Z,84.50
2019-03-22T10:21:22.772Z,80.00
2019-03-22T10:24:00.978Z,81.60
2019-03-22T10:26:58.176Z,84.50
2019-03-22T10:29:40.721Z,80.90
2019-03-22T10:32:24.870Z,81.60
2019-03-22T10:35:25.537Z,76.70
2019-03-22T10:38:01.140Z,78.20
2019-03-22T10:40:56.835Z,74.50
2019-03-22T10:43:37.965Z,76.10
2019-03-22T10:46:19.399Z,76.70
2019-03-22T10:49:01.587Z,77.90
2019-03-22T10:51:58.170Z,75.00
2019-03-22T10:54:40.159Z,70.90
2019-03-22T10:57:21.699Z,68.40
2019-03-22T11:00:05.765Z,66.30
2019-03-22T11:02:49.745Z,64.70
2019-03-22T11:05:34.198Z,65.20
2019-03-22T11:08:12.463Z,65.50
2019-03-22T11:10:51.117Z,68.00
2019-03-22T11:13:38.240Z,67.40
2019-03-22T11:16:27.064Z,62.00
2019-03-22T11:19:07.279Z,61.10
2019-03-22T11:21:46.892Z,59.60
2019-03-22T11:24:28.753Z,60.00
2019-03-22T11:27:24.745Z,61.80
2019-03-22T11:30:20.668Z,64.00
2019-03-22T11:33:33.484Z,63.80
2019-03-22T11:36:24.030Z,57.90
2019-03-22T11:39:36.824Z,61.20
2019-03-22T11:42:14.378Z,56.20
2019-03-22T11:44:54.129Z,60.40
2019-03-22T11:47:29.456Z,58.60
2019-03-22T11:50:16.642Z,59.50
2019-03-22T11:52:52.664Z,62.60
2019-03-22T11:55:28.648Z,55.80
2019-03-22T11:58:04.986Z,56.80
2019-03-22T12:00:43.696Z,58.00
2019-03-22T12:03:22.394Z,60.60
2019-03-22T12:05:58.614Z,59.30
2019-03-22T12:08:35.832Z,60.40
2019-03-22T12:11:22.492Z,61.50
2019-03-22T12:13:52.921Z,58.50
2019-03-22T12:17:02.280Z,60.60
2019-03-22T12:19:35.960Z,59.80
2019-03-22T12:22:25.225Z,55.10
2019-03-22T12:25:04.476Z,54.60
2019-03-22T12:27:42.596Z,58.40
2019-03-22T12:30:21.865Z,55.20
2019-03-22T12:32:58.873Z,58.70
2019-03-22T12:35:34.761Z,57.70
2019-03-22T12:38:25.488Z,58.40
2019-03-22T12:41:07.365Z,58.80
2019-03-22T12:43:59.071Z,55.80
2019-03-22T12:46:38.513Z,59.50
2019-03-22T12:49:25.209Z,61.50
2019-03-22T12:52:15.473Z,61.10
2019-03-22T12:54:55.327Z,58.90
2019-03-22T12:57:34.856Z,64.90
2019-03-22T13:00:24.925Z,57.30
2019-03-22T13:02:57.365Z,56.70
2019-03-22T13:05:46.742Z,59.20
2019-03-22T13:08:25.347Z,57.60
2019-03-22T13:11:03.148Z,56.90
2019-03-22T13:13:39.366Z,53.20
2019-03-22T13:16:14.846Z,52.90
2019-03-22T13:18:50.296Z,53.00
2019-03-22T13:21:27.165Z,52.50
2019-03-22T13:24:04.772Z,54.70
2019-03-22T13:26:38.380Z,58.90
2019-03-22T13:29:20.306Z,56.20
2019-03-22T13:32:19.874Z,54.70
2019-03-22T13:34:59.107Z,57.00
2019-03-22T13:37:41.661Z,57.00
2019-03-22T13:40:21.658Z,54.50
2019-03-22T13:42:59.391Z,56.70
2019-03-22T13:45:40.000Z,56.70
2019-03-22T13:48:23.920Z,56.50
2019-03-22T13:50:57.734Z,56.10
2019-03-22T13:53:38.092Z,51.10
2019-03-22T13:56:12.988Z,53.50
2019-03-22T13:58:49.797Z,53.70
2019-03-22T14:01:28.935Z,58.10
2019-03-22T14:04:11.762Z,56.10
2019-03-22T14:06:51.296Z,56.10
2019-03-22T14:09:34.604Z,53.40
2019-03-22T14:12:11.833Z,59.30
2019-03-22T14:14:49.153Z,53.50
2019-03-22T14:17:35.142Z,55.30
2019-03-22T14:20:21.377Z,55.60
2019-03-22T14:23:00.729Z,53.60
2019-03-22T14:25:39.420Z,56.50
2019-03-22T14:28:19.541Z,54.30
2019-03-22T14:30:58.941Z,57.90
2019-03-22T14:33:35.410Z,58.10
2019-03-22T14:36:10.544Z,53.00
2019-03-22T14:38:46.874Z,54.00
2019-03-22T14:41:28.050Z,59.90
2019-03-22T14:44:03.638Z,57.30
2019-03-22T14:46:42.510Z,59.00
2019-03-22T14:49:18.327Z,58.20
2019-03-22T14:51:55.859Z,58.90
2019-03-22T14:54:33.371Z,60.90
2019-03-22T14:57:08.890Z,57.70
2019-03-22T14:59:44.755Z,61.50
2019-03-22T15:02:20.860Z,56.70
2019-03-22T15:04:59.261Z,62.70
2019-03-22T15:07:34.256Z,62.00
2019-03-22T15:10:15.470Z,61.90
2019-03-22T15:12:53.176Z,63.90
2019-03-22T15:15:46.752Z,63.40
2019-03-22T15:18:56.752Z,64.00
2019-03-22T15:22:00.997Z,65.10
2019-03-22T15:24:55.611Z,64.60
2019-03-22T15:27:52.468Z,62.30
2019-03-22T15:30:47.166Z,64.70
2019-03-22T15:33:57.459Z,62.50
2019-03-22T15:36:57.635Z,64.20
2019-03-22T15:40:14.192Z,66.50
2019-03-22T15:42:58.812Z,64.20
2019-03-22T15:45:38.407Z,64.20
2019-03-22T15:48:14.593Z,67.00
2019-03-22T15:50:50.210Z,63.80
2019-03-22T15:53:34.919Z,64.20
2019-03-22T15:56:21.049Z,65.80
2019-03-22T15:59:06.313Z,64.50
2019-03-22T16:01:46.240Z,66.60
2019-03-22T16:04:24.222Z,69.50
2019-03-22T16:06:58.590Z,68.00
2019-03-22T16:09:41.861Z,67.80
2019-03-22T16:12:19.081Z,69.60
2019-03-22T16:14:56.862Z,71.40
2019-03-22T16:17:37.552Z,70.70
2019-03-22T16:20:16.118Z,70.90
2019-03-22T16:22:54.613Z,70.30
2019-03-22T16:25:30.802Z,71.90
2019-03-22T16:28:08.552Z,71.30
2019-03-22T16:30:47.196Z,71.40
2019-03-22T16:33:25.680Z,69.70
2019-03-22T16:36:02.687Z,70.50
2019-03-22T16:38:49.170Z,71.20
2019-03-22T16:41:26.530Z,73.50
2019-03-22T16:44:02.709Z,73.90
2019-03-22T16:46:38.719Z,75.00
2019-03-22T16:49:22.931Z,73.40
2019-03-22T16:52:06.244Z,72.00
2019-03-22T16:54:44.313Z,73.00
2019-03-22T16:57:23.085Z,72.80
2019-03-22T17:00:04.913Z,72.40
2019-03-22T17:02:44.047Z,72.70
2019-03-22T17:05:23.452Z,73.50
2019-03-22T17:08:03.688Z,74.40
2019-03-22T17:10:41.917Z,74.30
2019-03-22T17:13:23.186Z,75.00
2019-03-22T17:16:04.191Z,72.80
2019-03-22T17:18:46.202Z,74.30
2019-03-22T17:21:20.986Z,73.50
2019-03-22T17:23:55.096Z,74.30
2019-03-22T17:26:29.120Z,73.60
2019-03-22T17:29:06.415Z,74.40
2019-03-22T17:31:40.859Z,75.20
2019-03-22T17:34:16.428Z,74.60
2019-03-22T17:36:56.953Z,73.80
2019-03-22T17:39:35.420Z,75.40
2019-03-22T17:42:10.110Z,75.70
2019-03-22T17:44:48.325Z,77.50
2019-03-22T17:47:20.702Z,80.40
2019-03-22T17:49:51.230Z,83.90
2019-03-22T17:52:32.341Z,87.90
2019-03-22T17:55:24.478Z,88.60
2019-03-22T17:58:00.388Z,88.70
2019-03-22T18:00:36.319Z,90.00
2019-03-22T18:03:12.485Z,90.60
2019-03-22T18:05:57.625Z,91.20
2019-03-22T18:08:37.305Z,92.00
2019-03-22T18:11:14.284Z,92.60
2019-03-22T18:13:51.754Z,93.50
2019-03-22T18:16:29.876Z,94.80
2019-03-22T18:19:21.281Z,96.00
2019-03-22T18:22:03.113Z,97.60
2019-03-22T18:24:43.525Z,97.60
2019-03-22T18:27:25.485Z,96.60
2019-03-22T18:30:08.975Z,97.10
2019-03-22T18:32:47.114Z,97.40
2019-03-22T18:35:21.603Z,98.60
2019-03-22T18:38:01.686Z,97.90
2019-03-22T18:40:39.604Z,98.90
2019-03-22T18:43:19.636Z,99.40
2019-03-22T18:46:03.005Z,99.90
2019-03-22T18:48:39.814Z,99.70
2019-03-22T18:51:17.848Z,99.90
2019-03-22T18:53:51.033Z,99.90
2019-03-22T18:56:35.957Z,99.90
2019-03-22T18:59:11.347Z,99.90
2019-03-22T19:01:49.153Z,99.90
2019-03-22T19:04:25.771Z,99.90
2019-03-22T19:07:04.780Z,99.90
2019-03-22T19:09:39.242Z,99.90
2019-03-22T19:12:20.901Z,99.90
2019-03-22T19:14:59.730Z,99.90
2019-03-22T19:17:41.438Z,99.90
2019-03-22T19:20:20.380Z,99.90
2019-03-22T19:22:56.598Z,99.90
2019-03-22T19:25:33.609Z,99.90
2019-03-22T19:28:10.247Z,99.90
2019-03-22T19:30:45.495Z,99.90
2019-03-22T19:33:19.848Z,99.90
2019-03-22T19:35:55.053Z,99.90
2019-03-22T19:38:31.622Z,99.90
2019-03-22T19:41:06.142Z,99.90
2019-03-22T19:43:45.957Z,99.90
2019-03-22T19:46:23.052Z,99.90
2019-03-22T19:48:59.183Z,99.90
2019-03-22T19:51:32.598Z,99.90
2019-03-22T19:54:07.983Z,99.90
2019-03-22T19:56:45.046Z,99.90
2019-03-22T19:59:24.669Z,99.90
2019-03-22T20:02:03.063Z,99.90
2019-03-22T20:04:39.462Z,99.90
2019-03-22T20:07:14.350Z,99.90
2019-03-22T20:09:50.761Z,99.90
2019-03-22T20:12:27.023Z,99.90
2019-03-22T20:15:02.820Z,99.90
2019-03-22T20:17:43.018Z,99.90
2019-03-22T20:20:19.671Z,99.90
2019-03-22T20:22:53.694Z,99.90
2019-03-22T20:25:32.339Z,99.90
2019-03-22T20:28:07.963Z,99.90
2019-03-22T20:30:45.752Z,99.90
2019-03-22T20:33:23.285Z,99.90
2019-03-22T20:35:57.205Z,99.90
2019-03-22T20:38:34.466Z,99.90
2019-03-22T20:41:10.832Z,99.90
2019-03-22T20:43:45.042Z,99.90
2019-03-22T20:46:21.125Z,99.90
2019-03-22T20:48:53.178Z,99.90
2019-03-22T20:51:26.685Z,99.90
2019-03-22T20:54:00.981Z,99.90
2019-03-22T20:56:41.801Z,99.90
2019-03-22T20:59:13.898Z,99.90
2019-03-22T21:01:46.755Z,99.90
2019-03-22T21:04:22.011Z,99.90
2019-03-22T21:07:18.965Z,99.90
2019-03-22T21:09:53.554Z,99.90
2019-03-22T21:12:33.391Z,99.90
2019-03-22T21:15:10.430Z,99.90
2019-03-22T21:17:46.844Z,99.90
2019-03-22T21:20:26.554Z,99.90
2019-03-22T21:23:04.095Z,99.90
2019-03-22T21:25:33.832Z,99.90
2019-03-22T21:28:03.976Z,99.90
2019-03-22T21:30:33.651Z,99.90
2019-03-22T21:33:03.075Z,99.90
2019-03-22T21:35:37.239Z,99.90
2019-03-22T21:38:10.882Z,99.90
2019-03-22T21:40:35.508Z,99.90
2019-03-22T21:43:04.584Z,99.90
2019-03-22T21:45:33.674Z,99.90
2019-03-22T21:48:03.982Z,99.90
2019-03-22T21:50:33.193Z,99.90
2019-03-22T21:53:02.735Z,99.90
2019-03-22T21:55:31.746Z,99.90
2019-03-22T21:58:00.553Z,99.90
2019-03-22T22:00:29.705Z,99.90
2019-03-22T22:03:02.167Z,99.90
2019-03-22T22:05:31.302Z,99.90
2019-03-22T22:08:00.346Z,99.90
2019-03-22T22:10:29.381Z,99.90
2019-03-22T22:12:58.383Z,99.90
2019-03-22T22:15:27.959Z,99.90
2019-03-22T22:17:59.457Z,99.90
2019-03-22T22:20:30.042Z,99.90
2019-03-22T22:22:59.065Z,99.90
2019-03-22T22:25:28.394Z,99.90
2019-03-22T22:27:57.444Z,99.90
2019-03-22T22:30:26.595Z,99.90
2019-03-22T22:32:55.761Z,99.90
2019-03-22T22:35:25.090Z,99.90
2019-03-22T22:37:54.078Z,99.90
2019-03-22T22:40:23.282Z,99.90
2019-03-22T22:42:52.785Z,99.90
2019-03-22T22:45:22.997Z,99.90
2019-03-22T22:47:52.205Z,99.90
2019-03-22T22:50:21.709Z,99.90
2019-03-22T22:52:51.457Z,99.90
2019-03-22T22:55:20.627Z,99.90
2019-03-22T22:57:49.806Z,99.90
2019-03-22T23:00:18.836Z,99.90
2019-03-22T23:02:50.048Z,99.90
2019-03-22T23:05:19.799Z,99.90
2019-03-22T23:07:48.709Z,99.90
2019-03-22T23:10:17.961Z,99.90
2019-03-22T23:12:46.957Z,99.90
2019-03-22T23:15:16.187Z,99.90
2019-03-22T23:17:45.435Z,99.90
2019-03-22T23:20:14.717Z,99.90
2019-03-22T23:22:43.432Z,99.90
2019-03-22T23:25:12.446Z,99.90
2019-03-22T23:27:41.689Z,99.90
2019-03-22T23:30:10.625Z,99.90
2019-03-22T23:32:39.899Z,99.90
2019-03-22T23:35:08.980Z,99.90
2019-03-22T23:37:38.225Z,99.90
2019-03-22T23:40:07.629Z,99.90
2019-03-22T23:42:37.048Z,99.90
2019-03-22T23:45:07.211Z,99.90
2019-03-22T23:47:36.452Z,99.90
2019-03-22T23:50:06.192Z,99.90
2019-03-22T23:52:35.468Z,99.90
2019-03-22T23:55:04.450Z,99.90
2019-03-22T23:57:33.549Z,99.90
